sensor_id;sensor_type;location;lat;lon;timestamp;pressure;altitude;pressure_sealevel;temperature;humidity
56582;BME280;42463;52.214;21.238;2022-12-26T00:01:53;100717.51;;;6.09;75.90
56582;BME280;42463;52.214;21.238;2022-12-26T00:04:24;100716.36;;;6.05;76.22
56582;BME280;42463;52.214;21.238;2022-12-26T00:06:50;100712.27;;;6.04;76.17
56582;BME280;42463;52.214;21.238;2022-12-26T00:09:17;100716.80;;;6.02;76.19
56582;BME280;42463;52.214;21.238;2022-12-26T00:11:42;100714.00;;;6.01;76.39
56582;BME280;42463;52.214;21.238;2022-12-26T00:14:10;100711.90;;;5.99;76.04
56582;BME280;42463;52.214;21.238;2022-12-26T00:16:36;100708.98;;;5.96;76.25
56582;BME280;42463;52.214;21.238;2022-12-26T00:19:03;100705.55;;;5.93;76.10
56582;BME280;42463;52.214;21.238;2022-12-26T00:21:29;100706.40;;;5.91;76.15
56582;BME280;42463;52.214;21.238;2022-12-26T00:23:57;100701.33;;;5.89;76.34
56582;BME280;42463;52.214;21.238;2022-12-26T00:26:27;100694.55;;;5.87;76.42
56582;BME280;42463;52.214;21.238;2022-12-26T00:28:54;100679.37;;;5.83;76.27
56582;BME280;42463;52.214;21.238;2022-12-26T00:31:21;100679.45;;;5.84;76.36
56582;BME280;42463;52.214;21.238;2022-12-26T00:33:47;100677.14;;;5.83;76.49
56582;BME280;42463;52.214;21.238;2022-12-26T00:36:16;100683.63;;;5.85;76.89
56582;BME280;42463;52.214;21.238;2022-12-26T00:38:43;100683.53;;;5.86;76.69
56582;BME280;42463;52.214;21.238;2022-12-26T00:41:12;100678.23;;;5.87;76.47
56582;BME280;42463;52.214;21.238;2022-12-26T00:43:38;100671.89;;;5.86;76.45
56582;BME280;42463;52.214;21.238;2022-12-26T00:46:03;100669.98;;;5.87;76.66
56582;BME280;42463;52.214;21.238;2022-12-26T00:48:31;100675.54;;;5.88;76.44
56582;BME280;42463;52.214;21.238;2022-12-26T00:50:57;100678.36;;;5.90;76.61
56582;BME280;42463;52.214;21.238;2022-12-26T00:53:23;100675.62;;;5.89;76.43
56582;BME280;42463;52.214;21.238;2022-12-26T00:55:48;100675.21;;;5.91;76.67
56582;BME280;42463;52.214;21.238;2022-12-26T00:58:14;100675.41;;;5.89;76.47
56582;BME280;42463;52.214;21.238;2022-12-26T01:00:40;100685.98;;;5.90;76.44
56582;BME280;42463;52.214;21.238;2022-12-26T01:03:09;100689.91;;;5.90;76.46
56582;BME280;42463;52.214;21.238;2022-12-26T01:05:35;100685.97;;;5.91;76.58
56582;BME280;42463;52.214;21.238;2022-12-26T01:08:04;100678.54;;;5.94;76.54
56582;BME280;42463;52.214;21.238;2022-12-26T01:10:30;100669.45;;;5.96;76.32
56582;BME280;42463;52.214;21.238;2022-12-26T01:12:55;100661.99;;;5.96;76.18
56582;BME280;42463;52.214;21.238;2022-12-26T01:15:24;100659.79;;;5.98;76.28
56582;BME280;42463;52.214;21.238;2022-12-26T01:17:51;100658.79;;;5.99;76.37
56582;BME280;42463;52.214;21.238;2022-12-26T01:20:18;100656.71;;;5.98;76.34
56582;BME280;42463;52.214;21.238;2022-12-26T01:22:44;100648.96;;;6.00;76.43
56582;BME280;42463;52.214;21.238;2022-12-26T01:25:11;100632.17;;;6.00;76.18
56582;BME280;42463;52.214;21.238;2022-12-26T01:27:37;100631.32;;;5.99;76.35
56582;BME280;42463;52.214;21.238;2022-12-26T01:30:05;100633.41;;;5.97;76.38
56582;BME280;42463;52.214;21.238;2022-12-26T01:32:30;100632.79;;;5.96;76.33
56582;BME280;42463;52.214;21.238;2022-12-26T01:34:58;100626.59;;;5.95;76.27
56582;BME280;42463;52.214;21.238;2022-12-26T01:37:23;100625.09;;;5.95;76.25
56582;BME280;42463;52.214;21.238;2022-12-26T01:39:49;100623.73;;;5.94;76.51
56582;BME280;42463;52.214;21.238;2022-12-26T01:42:18;100612.22;;;5.94;76.42
56582;BME280;42463;52.214;21.238;2022-12-26T01:45:05;100610.23;;;5.94;76.42
56582;BME280;42463;52.214;21.238;2022-12-26T01:47:40;100602.52;;;5.94;76.62
56582;BME280;42463;52.214;21.238;2022-12-26T01:50:20;100607.69;;;5.96;76.51
56582;BME280;42463;52.214;21.238;2022-12-26T01:52:49;100615.05;;;5.97;76.21
56582;BME280;42463;52.214;21.238;2022-12-26T01:55:16;100620.69;;;5.97;76.10
56582;BME280;42463;52.214;21.238;2022-12-26T01:57:52;100623.79;;;5.97;76.23
56582;BME280;42463;52.214;21.238;2022-12-26T02:04:19;100619.06;;;5.99;76.25
56582;BME280;42463;52.214;21.238;2022-12-26T02:07:03;100604.89;;;5.99;76.15
56582;BME280;42463;52.214;21.238;2022-12-26T02:09:31;100601.61;;;5.99;76.16
56582;BME280;42463;52.214;21.238;2022-12-26T02:12:06;100602.36;;;5.99;76.22
56582;BME280;42463;52.214;21.238;2022-12-26T02:14:34;100601.90;;;5.99;76.22
56582;BME280;42463;52.214;21.238;2022-12-26T02:17:02;100602.23;;;5.99;76.19
56582;BME280;42463;52.214;21.238;2022-12-26T02:19:45;100599.86;;;6.00;76.26
56582;BME280;42463;52.214;21.238;2022-12-26T02:22:45;100599.83;;;6.00;76.06
56582;BME280;42463;52.214;21.238;2022-12-26T02:25:42;100596.14;;;6.00;76.20
56582;BME280;42463;52.214;21.238;2022-12-26T02:28:35;100590.33;;;6.02;76.17
56582;BME280;42463;52.214;21.238;2022-12-26T02:31:10;100587.56;;;6.00;76.00
56582;BME280;42463;52.214;21.238;2022-12-26T02:33:48;100584.77;;;6.01;76.12
56582;BME280;42463;52.214;21.238;2022-12-26T02:36:33;100587.65;;;5.99;76.07
56582;BME280;42463;52.214;21.238;2022-12-26T02:39:14;100565.74;;;5.98;76.15
56582;BME280;42463;52.214;21.238;2022-12-26T02:41:50;100557.50;;;5.94;76.19
56582;BME280;42463;52.214;21.238;2022-12-26T02:44:28;100550.54;;;5.90;76.33
56582;BME280;42463;52.214;21.238;2022-12-26T02:47:24;100546.79;;;5.89;76.45
56582;BME280;42463;52.214;21.238;2022-12-26T02:50:02;100537.25;;;5.85;76.40
56582;BME280;42463;52.214;21.238;2022-12-26T02:53:07;100537.02;;;5.83;76.28
56582;BME280;42463;52.214;21.238;2022-12-26T02:55:56;100523.27;;;5.79;76.55
56582;BME280;42463;52.214;21.238;2022-12-26T02:58:47;100513.12;;;5.78;76.94
56582;BME280;42463;52.214;21.238;2022-12-26T03:01:38;100514.23;;;5.75;76.98
56582;BME280;42463;52.214;21.238;2022-12-26T03:04:37;100507.41;;;5.73;77.03
56582;BME280;42463;52.214;21.238;2022-12-26T03:07:29;100511.64;;;5.72;77.01
56582;BME280;42463;52.214;21.238;2022-12-26T03:10:24;100515.71;;;5.71;76.96
56582;BME280;42463;52.214;21.238;2022-12-26T03:13:17;100519.05;;;5.71;76.97
56582;BME280;42463;52.214;21.238;2022-12-26T03:15:52;100515.98;;;5.73;77.07
56582;BME280;42463;52.214;21.238;2022-12-26T03:19:04;100508.34;;;5.75;77.15
56582;BME280;42463;52.214;21.238;2022-12-26T03:21:35;100502.29;;;5.76;77.07
56582;BME280;42463;52.214;21.238;2022-12-26T03:24:05;100495.34;;;5.76;76.91
56582;BME280;42463;52.214;21.238;2022-12-26T03:26:46;100486.27;;;5.75;77.03
56582;BME280;42463;52.214;21.238;2022-12-26T03:29:18;100490.97;;;5.74;76.92
56582;BME280;42463;52.214;21.238;2022-12-26T03:32:18;100493.06;;;5.70;76.92
56582;BME280;42463;52.214;21.238;2022-12-26T03:34:48;100484.54;;;5.70;76.93
56582;BME280;42463;52.214;21.238;2022-12-26T03:37:31;100479.15;;;5.71;77.05
56582;BME280;42463;52.214;21.238;2022-12-26T03:40:10;100483.84;;;5.73;77.09
56582;BME280;42463;52.214;21.238;2022-12-26T03:43:18;100471.77;;;5.75;76.97
56582;BME280;42463;52.214;21.238;2022-12-26T03:46:18;100457.52;;;5.72;77.17
56582;BME280;42463;52.214;21.238;2022-12-26T03:49:19;100464.09;;;5.77;77.17
56582;BME280;42463;52.214;21.238;2022-12-26T03:52:08;100456.28;;;5.76;76.88
56582;BME280;42463;52.214;21.238;2022-12-26T03:54:56;100444.59;;;5.74;76.81
56582;BME280;42463;52.214;21.238;2022-12-26T03:58:04;100430.99;;;5.74;77.21
56582;BME280;42463;52.214;21.238;2022-12-26T04:01:23;100426.89;;;5.75;77.10
56582;BME280;42463;52.214;21.238;2022-12-26T04:04:10;100415.71;;;5.74;77.08
56582;BME280;42463;52.214;21.238;2022-12-26T04:07:26;100406.75;;;5.73;77.09
56582;BME280;42463;52.214;21.238;2022-12-26T04:10:15;100399.05;;;5.68;76.91
56582;BME280;42463;52.214;21.238;2022-12-26T04:13:02;100391.02;;;5.64;77.08
56582;BME280;42463;52.214;21.238;2022-12-26T04:15:52;100375.17;;;5.63;77.47
56582;BME280;42463;52.214;21.238;2022-12-26T04:18:46;100369.64;;;5.63;77.40
56582;BME280;42463;52.214;21.238;2022-12-26T04:21:41;100353.34;;;5.60;77.23
56582;BME280;42463;52.214;21.238;2022-12-26T04:24:30;100369.56;;;5.61;77.51
56582;BME280;42463;52.214;21.238;2022-12-26T04:27:17;100369.92;;;5.59;77.45
56582;BME280;42463;52.214;21.238;2022-12-26T04:30:10;100368.87;;;5.59;77.63
56582;BME280;42463;52.214;21.238;2022-12-26T04:32:52;100364.48;;;5.60;77.61
56582;BME280;42463;52.214;21.238;2022-12-26T04:35:55;100357.59;;;5.62;77.43
56582;BME280;42463;52.214;21.238;2022-12-26T04:38:42;100355.89;;;5.62;77.54
56582;BME280;42463;52.214;21.238;2022-12-26T04:41:33;100352.17;;;5.61;77.62
56582;BME280;42463;52.214;21.238;2022-12-26T04:44:18;100341.09;;;5.59;77.60
56582;BME280;42463;52.214;21.238;2022-12-26T04:46:48;100335.59;;;5.59;77.60
56582;BME280;42463;52.214;21.238;2022-12-26T04:49:17;100331.42;;;5.58;77.79
56582;BME280;42463;52.214;21.238;2022-12-26T04:52:13;100321.48;;;5.55;77.77
56582;BME280;42463;52.214;21.238;2022-12-26T04:54:40;100322.23;;;5.55;77.65
56582;BME280;42463;52.214;21.238;2022-12-26T04:57:09;100322.65;;;5.54;78.03
56582;BME280;42463;52.214;21.238;2022-12-26T04:59:35;100311.26;;;5.55;77.92
56582;BME280;42463;52.214;21.238;2022-12-26T05:02:05;100305.48;;;5.54;77.96
56582;BME280;42463;52.214;21.238;2022-12-26T05:04:47;100305.65;;;5.53;78.01
56582;BME280;42463;52.214;21.238;2022-12-26T05:07:32;100305.14;;;5.54;77.95
56582;BME280;42463;52.214;21.238;2022-12-26T05:10:20;100293.59;;;5.54;77.94
56582;BME280;42463;52.214;21.238;2022-12-26T05:12:49;100277.98;;;5.54;77.97
56582;BME280;42463;52.214;21.238;2022-12-26T05:15:32;100272.98;;;5.53;78.05
56582;BME280;42463;52.214;21.238;2022-12-26T05:18:21;100269.64;;;5.50;77.98
56582;BME280;42463;52.214;21.238;2022-12-26T05:21:06;100265.61;;;5.47;78.01
56582;BME280;42463;52.214;21.238;2022-12-26T05:23:48;100265.27;;;5.47;78.07
56582;BME280;42463;52.214;21.238;2022-12-26T05:26:35;100256.50;;;5.47;78.34
56582;BME280;42463;52.214;21.238;2022-12-26T05:29:21;100254.06;;;5.48;78.27
56582;BME280;42463;52.214;21.238;2022-12-26T05:31:47;100249.73;;;5.46;78.23
56582;BME280;42463;52.214;21.238;2022-12-26T05:34:13;100245.23;;;5.48;78.30
56582;BME280;42463;52.214;21.238;2022-12-26T05:36:44;100242.30;;;5.47;78.41
56582;BME280;42463;52.214;21.238;2022-12-26T05:39:11;100236.73;;;5.46;78.40
56582;BME280;42463;52.214;21.238;2022-12-26T05:41:38;100227.41;;;5.43;78.68
56582;BME280;42463;52.214;21.238;2022-12-26T05:44:05;100222.70;;;5.42;78.43
56582;BME280;42463;52.214;21.238;2022-12-26T05:46:33;100214.80;;;5.42;78.61
56582;BME280;42463;52.214;21.238;2022-12-26T05:48:59;100202.08;;;5.40;78.56
56582;BME280;42463;52.214;21.238;2022-12-26T05:51:26;100196.46;;;5.39;78.65
56582;BME280;42463;52.214;21.238;2022-12-26T05:53:52;100193.81;;;5.38;78.85
56582;BME280;42463;52.214;21.238;2022-12-26T05:56:19;100199.31;;;5.39;78.74
56582;BME280;42463;52.214;21.238;2022-12-26T05:58:46;100204.65;;;5.39;78.77
56582;BME280;42463;52.214;21.238;2022-12-26T06:01:15;100220.86;;;5.40;78.60
56582;BME280;42463;52.214;21.238;2022-12-26T06:03:47;100209.75;;;5.39;78.97
56582;BME280;42463;52.214;21.238;2022-12-26T06:06:28;100215.67;;;5.38;78.81
56582;BME280;42463;52.214;21.238;2022-12-26T06:08:55;100217.77;;;5.32;78.78
56582;BME280;42463;52.214;21.238;2022-12-26T06:11:21;100231.36;;;5.38;78.79
56582;BME280;42463;52.214;21.238;2022-12-26T06:13:52;100213.64;;;5.39;78.76
56582;BME280;42463;52.214;21.238;2022-12-26T06:16:18;100216.73;;;5.40;79.03
56582;BME280;42463;52.214;21.238;2022-12-26T06:18:43;100202.46;;;5.42;79.18
56582;BME280;42463;52.214;21.238;2022-12-26T06:21:11;100186.35;;;5.43;78.97
56582;BME280;42463;52.214;21.238;2022-12-26T06:23:38;100180.23;;;5.43;79.05
56582;BME280;42463;52.214;21.238;2022-12-26T06:26:04;100173.33;;;5.42;78.87
56582;BME280;42463;52.214;21.238;2022-12-26T06:28:34;100169.73;;;5.41;78.80
56582;BME280;42463;52.214;21.238;2022-12-26T06:31:04;100181.49;;;5.41;79.06
56582;BME280;42463;52.214;21.238;2022-12-26T06:33:33;100191.23;;;5.40;78.88
56582;BME280;42463;52.214;21.238;2022-12-26T06:36:06;100188.92;;;5.42;79.14
56582;BME280;42463;52.214;21.238;2022-12-26T06:38:31;100188.03;;;5.41;79.00
56582;BME280;42463;52.214;21.238;2022-12-26T06:41:02;100191.09;;;5.45;78.99
56582;BME280;42463;52.214;21.238;2022-12-26T06:43:28;100196.04;;;5.47;79.30
56582;BME280;42463;52.214;21.238;2022-12-26T06:45:59;100189.01;;;5.50;79.16
56582;BME280;42463;52.214;21.238;2022-12-26T06:48:29;100171.72;;;5.51;79.11
56582;BME280;42463;52.214;21.238;2022-12-26T06:50:57;100172.73;;;5.53;79.15
56582;BME280;42463;52.214;21.238;2022-12-26T06:53:23;100165.23;;;5.54;79.09
56582;BME280;42463;52.214;21.238;2022-12-26T06:55:50;100163.36;;;5.54;79.02
56582;BME280;42463;52.214;21.238;2022-12-26T06:58:26;100173.16;;;5.53;78.96
56582;BME280;42463;52.214;21.238;2022-12-26T07:00:52;100185.06;;;5.51;79.11
56582;BME280;42463;52.214;21.238;2022-12-26T07:03:21;100140.33;;;5.50;79.24
56582;BME280;42463;52.214;21.238;2022-12-26T07:05:48;100137.36;;;5.50;79.24
56582;BME280;42463;52.214;21.238;2022-12-26T07:08:14;100127.45;;;5.50;79.37
56582;BME280;42463;52.214;21.238;2022-12-26T07:10:41;100112.95;;;5.51;79.33
56582;BME280;42463;52.214;21.238;2022-12-26T07:13:07;100127.31;;;5.54;79.59
56582;BME280;42463;52.214;21.238;2022-12-26T07:15:33;100118.83;;;5.57;79.37
56582;BME280;42463;52.214;21.238;2022-12-26T07:17:59;100113.11;;;5.57;79.24
56582;BME280;42463;52.214;21.238;2022-12-26T07:20:26;100123.92;;;5.59;79.20
56582;BME280;42463;52.214;21.238;2022-12-26T07:22:55;100137.89;;;5.55;79.24
56582;BME280;42463;52.214;21.238;2022-12-26T07:25:20;100151.83;;;5.56;79.10
56582;BME280;42463;52.214;21.238;2022-12-26T07:27:47;100144.17;;;5.55;79.40
56582;BME280;42463;52.214;21.238;2022-12-26T07:30:17;100113.87;;;5.59;79.38
56582;BME280;42463;52.214;21.238;2022-12-26T07:32:44;100111.14;;;5.62;79.69
56582;BME280;42463;52.214;21.238;2022-12-26T07:35:10;100109.27;;;5.64;79.46
56582;BME280;42463;52.214;21.238;2022-12-26T07:37:36;100108.39;;;5.65;79.53
56582;BME280;42463;52.214;21.238;2022-12-26T07:40:04;100105.70;;;5.65;79.46
56582;BME280;42463;52.214;21.238;2022-12-26T07:42:29;100106.13;;;5.67;79.36
56582;BME280;42463;52.214;21.238;2022-12-26T07:44:58;100096.65;;;5.67;79.50
56582;BME280;42463;52.214;21.238;2022-12-26T07:47:23;100092.86;;;5.69;79.54
56582;BME280;42463;52.214;21.238;2022-12-26T07:49:49;100086.92;;;5.72;79.61
56582;BME280;42463;52.214;21.238;2022-12-26T07:52:17;100077.94;;;5.74;79.54
56582;BME280;42463;52.214;21.238;2022-12-26T07:54:43;100090.45;;;5.74;79.64
56582;BME280;42463;52.214;21.238;2022-12-26T07:57:09;100111.61;;;5.71;79.45
56582;BME280;42463;52.214;21.238;2022-12-26T07:59:37;100098.48;;;5.71;79.53
56582;BME280;42463;52.214;21.238;2022-12-26T08:02:03;100087.08;;;5.70;79.58
56582;BME280;42463;52.214;21.238;2022-12-26T08:04:29;100099.14;;;5.69;79.79
56582;BME280;42463;52.214;21.238;2022-12-26T08:06:54;100109.83;;;5.69;79.77
56582;BME280;42463;52.214;21.238;2022-12-26T08:09:19;100114.23;;;5.65;80.02
56582;BME280;42463;52.214;21.238;2022-12-26T08:11:45;100114.67;;;5.69;80.13
56582;BME280;42463;52.214;21.238;2022-12-26T08:14:11;100110.38;;;5.69;79.94
56582;BME280;42463;52.214;21.238;2022-12-26T08:16:39;100093.45;;;5.70;79.84
56582;BME280;42463;52.214;21.238;2022-12-26T08:19:06;100081.30;;;5.69;80.01
56582;BME280;42463;52.214;21.238;2022-12-26T08:21:31;100063.08;;;5.72;80.10
56582;BME280;42463;52.214;21.238;2022-12-26T08:24:00;100066.57;;;5.76;80.20
56582;BME280;42463;52.214;21.238;2022-12-26T08:26:26;100081.32;;;5.76;80.11
56582;BME280;42463;52.214;21.238;2022-12-26T08:28:56;100084.33;;;5.74;80.22
56582;BME280;42463;52.214;21.238;2022-12-26T08:31:21;100085.36;;;5.74;80.22
56582;BME280;42463;52.214;21.238;2022-12-26T08:33:53;100098.74;;;5.73;80.47
56582;BME280;42463;52.214;21.238;2022-12-26T08:36:18;100081.06;;;5.76;80.37
56582;BME280;42463;52.214;21.238;2022-12-26T08:38:44;100077.39;;;5.81;80.71
56582;BME280;42463;52.214;21.238;2022-12-26T08:41:13;100063.68;;;5.83;80.55
56582;BME280;42463;52.214;21.238;2022-12-26T08:43:40;100056.21;;;5.86;80.37
56582;BME280;42463;52.214;21.238;2022-12-26T08:46:07;100055.83;;;5.92;80.49
56582;BME280;42463;52.214;21.238;2022-12-26T08:48:38;100056.00;;;5.96;80.54
56582;BME280;42463;52.214;21.238;2022-12-26T08:51:10;100049.02;;;5.93;80.24
56582;BME280;42463;52.214;21.238;2022-12-26T08:53:36;100040.10;;;5.93;80.33
56582;BME280;42463;52.214;21.238;2022-12-26T08:56:03;100039.83;;;6.00;80.24
56582;BME280;42463;52.214;21.238;2022-12-26T08:58:29;100045.36;;;6.04;80.39
56582;BME280;42463;52.214;21.238;2022-12-26T09:01:00;100047.98;;;6.05;80.15
56582;BME280;42463;52.214;21.238;2022-12-26T09:03:28;100043.66;;;6.05;80.24
56582;BME280;42463;52.214;21.238;2022-12-26T09:06:11;100041.02;;;6.07;80.18
56582;BME280;42463;52.214;21.238;2022-12-26T09:08:39;100035.05;;;6.07;80.18
56582;BME280;42463;52.214;21.238;2022-12-26T09:11:10;100029.97;;;6.02;80.31
56582;BME280;42463;52.214;21.238;2022-12-26T09:13:40;100025.92;;;5.99;80.41
56582;BME280;42463;52.214;21.238;2022-12-26T09:16:12;100012.43;;;6.03;80.72
56582;BME280;42463;52.214;21.238;2022-12-26T09:18:40;100003.48;;;6.05;80.55
56582;BME280;42463;52.214;21.238;2022-12-26T09:21:10;100010.91;;;6.07;80.61
56582;BME280;42463;52.214;21.238;2022-12-26T09:23:37;100010.09;;;6.06;80.52
56582;BME280;42463;52.214;21.238;2022-12-26T09:26:07;100017.02;;;6.11;80.61
56582;BME280;42463;52.214;21.238;2022-12-26T09:28:33;100022.82;;;6.13;80.87
56582;BME280;42463;52.214;21.238;2022-12-26T09:31:02;100011.98;;;6.14;80.71
56582;BME280;42463;52.214;21.238;2022-12-26T09:33:31;100006.08;;;6.15;80.72
56582;BME280;42463;52.214;21.238;2022-12-26T09:36:02;99991.19;;;6.19;80.56
56582;BME280;42463;52.214;21.238;2022-12-26T09:38:29;99980.92;;;6.20;80.48
56582;BME280;42463;52.214;21.238;2022-12-26T09:41:01;99983.17;;;6.17;80.57
56582;BME280;42463;52.214;21.238;2022-12-26T09:43:41;99983.15;;;6.18;80.67
56582;BME280;42463;52.214;21.238;2022-12-26T09:46:27;99982.29;;;6.16;80.92
56582;BME280;42463;52.214;21.238;2022-12-26T09:49:10;99978.75;;;6.19;80.97
56582;BME280;42463;52.214;21.238;2022-12-26T09:51:38;99981.14;;;6.26;80.81
56582;BME280;42463;52.214;21.238;2022-12-26T09:54:10;99980.33;;;6.28;80.84
56582;BME280;42463;52.214;21.238;2022-12-26T09:56:55;99982.79;;;6.32;80.80
56582;BME280;42463;52.214;21.238;2022-12-26T09:59:29;99984.28;;;6.34;80.67
56582;BME280;42463;52.214;21.238;2022-12-26T10:02:18;99984.98;;;6.39;80.62
56582;BME280;42463;52.214;21.238;2022-12-26T10:04:57;99983.38;;;6.40;80.50
56582;BME280;42463;52.214;21.238;2022-12-26T10:07:32;99978.63;;;6.39;80.71
56582;BME280;42463;52.214;21.238;2022-12-26T10:10:34;99972.70;;;6.43;80.71
56582;BME280;42463;52.214;21.238;2022-12-26T10:13:23;99967.50;;;6.49;80.93
56582;BME280;42463;52.214;21.238;2022-12-26T10:16:02;99963.75;;;6.55;80.92
56582;BME280;42463;52.214;21.238;2022-12-26T10:18:36;99959.95;;;6.62;80.87
56582;BME280;42463;52.214;21.238;2022-12-26T10:21:11;99965.41;;;6.65;80.76
56582;BME280;42463;52.214;21.238;2022-12-26T10:23:41;99964.73;;;6.64;80.78
56582;BME280;42463;52.214;21.238;2022-12-26T10:26:14;99963.45;;;6.70;81.04
56582;BME280;42463;52.214;21.238;2022-12-26T10:28:45;99954.49;;;6.76;81.07
56582;BME280;42463;52.214;21.238;2022-12-26T10:31:20;99962.84;;;6.81;81.24
56582;BME280;42463;52.214;21.238;2022-12-26T10:33:53;99957.36;;;6.84;81.55
56582;BME280;42463;52.214;21.238;2022-12-26T10:36:32;99951.11;;;6.88;81.32
56582;BME280;42463;52.214;21.238;2022-12-26T10:39:02;99944.74;;;6.90;81.19
56582;BME280;42463;52.214;21.238;2022-12-26T10:41:34;99934.69;;;6.95;81.38
56582;BME280;42463;52.214;21.238;2022-12-26T10:44:02;99932.20;;;6.98;81.93
56582;BME280;42463;52.214;21.238;2022-12-26T10:46:58;99923.93;;;7.03;81.83
56582;BME280;42463;52.214;21.238;2022-12-26T10:49:27;99927.35;;;7.07;81.69
56582;BME280;42463;52.214;21.238;2022-12-26T10:51:54;99927.39;;;7.13;82.02
56582;BME280;42463;52.214;21.238;2022-12-26T10:54:20;99921.27;;;7.17;82.01
56582;BME280;42463;52.214;21.238;2022-12-26T10:56:47;99921.14;;;7.22;81.94
56582;BME280;42463;52.214;21.238;2022-12-26T10:59:15;99911.52;;;7.27;82.21
56582;BME280;42463;52.214;21.238;2022-12-26T11:01:41;99900.39;;;7.35;82.29
56582;BME280;42463;52.214;21.238;2022-12-26T11:04:18;99891.20;;;7.42;82.17
56582;BME280;42463;52.214;21.238;2022-12-26T11:06:44;99894.98;;;7.49;82.20
56582;BME280;42463;52.214;21.238;2022-12-26T11:09:29;99892.21;;;7.51;82.27
56582;BME280;42463;52.214;21.238;2022-12-26T11:11:58;99897.29;;;7.51;82.57
56582;BME280;42463;52.214;21.238;2022-12-26T11:14:34;99895.77;;;7.58;82.39
56582;BME280;42463;52.214;21.238;2022-12-26T11:17:03;99897.35;;;7.63;82.55
56582;BME280;42463;52.214;21.238;2022-12-26T11:19:31;99901.33;;;7.65;82.45
56582;BME280;42463;52.214;21.238;2022-12-26T11:22:19;99903.20;;;7.68;82.32
56582;BME280;42463;52.214;21.238;2022-12-26T11:24:45;99897.12;;;7.65;82.01
56582;BME280;42463;52.214;21.238;2022-12-26T11:27:22;99901.55;;;7.69;82.35
56582;BME280;42463;52.214;21.238;2022-12-26T11:29:50;99895.52;;;7.75;82.20
56582;BME280;42463;52.214;21.238;2022-12-26T11:32:29;99890.22;;;7.81;82.04
56582;BME280;42463;52.214;21.238;2022-12-26T11:34:56;99891.30;;;7.81;82.09
56582;BME280;42463;52.214;21.238;2022-12-26T11:37:25;99889.60;;;7.84;81.91
56582;BME280;42463;52.214;21.238;2022-12-26T11:39:53;99895.48;;;7.86;82.24
56582;BME280;42463;52.214;21.238;2022-12-26T11:42:20;99893.63;;;7.90;82.10
56582;BME280;42463;52.214;21.238;2022-12-26T11:44:59;99891.23;;;7.96;82.25
56582;BME280;42463;52.214;21.238;2022-12-26T11:47:27;99893.43;;;8.04;82.25
56582;BME280;42463;52.214;21.238;2022-12-26T11:49:59;99896.16;;;8.06;82.00
56582;BME280;42463;52.214;21.238;2022-12-26T11:52:39;99887.98;;;8.04;81.95
56582;BME280;42463;52.214;21.238;2022-12-26T11:57:42;99884.13;;;8.20;81.98
56582;BME280;42463;52.214;21.238;2022-12-26T12:00:19;99880.33;;;8.23;81.58
56582;BME280;42463;52.214;21.238;2022-12-26T12:02:44;99883.09;;;8.34;82.05
56582;BME280;42463;52.214;21.238;2022-12-26T12:05:11;99868.63;;;8.77;82.51
56582;BME280;42463;52.214;21.238;2022-12-26T12:13:12;99853.55;;;12.72;71.95
56582;BME280;42463;52.214;21.238;2022-12-26T12:15:43;99855.21;;;13.43;67.59
56582;BME280;42463;52.214;21.238;2022-12-26T12:18:11;99854.61;;;13.74;65.76
56582;BME280;42463;52.214;21.238;2022-12-26T12:20:39;99855.09;;;13.84;65.59
56582;BME280;42463;52.214;21.238;2022-12-26T12:23:14;99858.48;;;13.67;65.21
56582;BME280;42463;52.214;21.238;2022-12-26T12:25:48;99855.48;;;13.23;64.12
56582;BME280;42463;52.214;21.238;2022-12-26T12:28:22;99853.72;;;12.81;64.71
56582;BME280;42463;52.214;21.238;2022-12-26T12:30:49;99851.71;;;12.53;65.97
56582;BME280;42463;52.214;21.238;2022-12-26T12:33:22;99856.31;;;12.32;66.43
56582;BME280;42463;52.214;21.238;2022-12-26T12:35:59;99863.02;;;12.02;67.21
56582;BME280;42463;52.214;21.238;2022-12-26T12:38:27;99863.30;;;11.67;67.67
56582;BME280;42463;52.214;21.238;2022-12-26T12:40:56;99867.17;;;11.42;69.12
56582;BME280;42463;52.214;21.238;2022-12-26T12:43:23;99869.36;;;11.18;69.97
56582;BME280;42463;52.214;21.238;2022-12-26T12:45:53;99874.56;;;11.02;70.41
56582;BME280;42463;52.214;21.238;2022-12-26T12:48:25;99869.88;;;10.84;71.20
56582;BME280;42463;52.214;21.238;2022-12-26T12:50:54;99869.31;;;10.68;71.88
56582;BME280;42463;52.214;21.238;2022-12-26T12:53:29;99873.41;;;10.58;72.60
56582;BME280;42463;52.214;21.238;2022-12-26T12:56:04;99874.48;;;10.51;73.15
56582;BME280;42463;52.214;21.238;2022-12-26T12:58:42;99875.22;;;10.46;73.33
56582;BME280;42463;52.214;21.238;2022-12-26T13:01:19;99878.02;;;10.42;73.51
56582;BME280;42463;52.214;21.238;2022-12-26T13:03:51;99875.21;;;10.35;74.01
56582;BME280;42463;52.214;21.238;2022-12-26T13:06:25;99884.26;;;10.33;74.60
56582;BME280;42463;52.214;21.238;2022-12-26T13:08:50;99887.23;;;10.33;74.61
56582;BME280;42463;52.214;21.238;2022-12-26T13:11:21;99883.48;;;10.29;74.82
56582;BME280;42463;52.214;21.238;2022-12-26T13:13:48;99882.00;;;10.24;74.93
56582;BME280;42463;52.214;21.238;2022-12-26T13:16:16;99882.64;;;10.21;75.14
56582;BME280;42463;52.214;21.238;2022-12-26T13:18:49;99884.16;;;10.16;75.10
56582;BME280;42463;52.214;21.238;2022-12-26T13:21:20;99885.70;;;10.08;75.58
56582;BME280;42463;52.214;21.238;2022-12-26T13:23:46;99888.44;;;10.03;75.82
56582;BME280;42463;52.214;21.238;2022-12-26T13:26:29;99884.13;;;10.00;76.24
56582;BME280;42463;52.214;21.238;2022-12-26T13:28:58;99882.27;;;9.94;76.65
56582;BME280;42463;52.214;21.238;2022-12-26T13:31:36;99882.95;;;9.90;76.99
56582;BME280;42463;52.214;21.238;2022-12-26T13:34:01;99887.71;;;9.90;77.24
56582;BME280;42463;52.214;21.238;2022-12-26T13:36:39;99888.36;;;9.89;77.18
56582;BME280;42463;52.214;21.238;2022-12-26T13:41:47;99899.09;;;9.98;77.41